Time;durP1;ratioP1;P1;durP2;ratioP2;P2;SDS_P1;SDS_P2;PMS_P1;PMS_P2;Temp;Humidity;BMP_temperature;BMP_pressure;BME280_temperature;BME280_humidity;BME280_pressure;Samples;Min_cycle;Max_cycle;Signal;HPM_P1;HPM_P2
2021/12/09 00:02:16;;;;;;;26.85;3.97;;;;;;;;;;4998802;28;20030;-28
2021/12/09 00:04:42;;;;;;;18.80;3.90;;;;;;;;;;4998614;28;20050;-28
2021/12/09 00:07:09;;;;;;;14.45;3.75;;;;;;;;;;4998805;28;20030;-29
2021/12/09 00:09:35;;;;;;;16.45;3.75;;;;;;;;;;4998810;28;20472;-29
2021/12/09 00:12:09;;;;;;;21.02;3.33;;;;;;;;;;4998722;28;20022;-29
2021/12/09 00:14:36;;;;;;;25.15;3.38;;;;;;;;;;4998687;28;20034;-28
2021/12/09 00:17:05;;;;;;;34.63;5.28;;;;;;;;;;4998667;28;20037;-29
2021/12/09 00:19:31;;;;;;;30.27;5.75;;;;;;;;;;4998927;28;20375;-29
2021/12/09 00:21:59;;;;;;;29.15;6.00;;;;;;;;;;4998539;28;20120;-29
2021/12/09 00:24:26;;;;;;;19.85;4.35;;;;;;;;;;4999264;28;20022;-29
2021/12/09 00:26:52;;;;;;;25.58;4.47;;;;;;;;;;4998717;28;20092;-29
2021/12/09 00:29:19;;;;;;;29.95;4.18;;;;;;;;;;4998463;28;20093;-29
2021/12/09 00:31:47;;;;;;;16.80;3.67;;;;;;;;;;4998408;28;20027;-29
2021/12/09 00:34:14;;;;;;;23.45;3.67;;;;;;;;;;4981210;28;20114;-29
2021/12/09 00:36:54;;;;;;;24.48;3.53;;;;;;;;;;4998215;28;20112;-28
2021/12/09 00:39:20;;;;;;;15.70;3.83;;;;;;;;;;4998464;28;20097;-29
2021/12/09 00:41:47;;;;;;;21.60;5.82;;;;;;;;;;4998522;28;20045;-29
2021/12/09 00:44:13;;;;;;;26.48;3.50;;;;;;;;;;4998379;28;20454;-29
2021/12/09 00:46:39;;;;;;;21.10;5.55;;;;;;;;;;4998132;28;20389;-29
2021/12/09 00:49:06;;;;;;;18.08;3.67;;;;;;;;;;4998654;28;20034;-29
2021/12/09 00:51:32;;;;;;;19.90;3.97;;;;;;;;;;4998008;28;20038;-29
2021/12/09 00:53:58;;;;;;;19.58;4.93;;;;;;;;;;4997904;28;20035;-29
2021/12/09 00:56:25;;;;;;;20.15;4.15;;;;;;;;;;4997888;28;20104;-29
2021/12/09 00:58:51;;;;;;;25.23;3.90;;;;;;;;;;4997931;28;20054;-29
2021/12/09 01:01:19;;;;;;;23.08;3.30;;;;;;;;;;4997904;28;20026;-29
2021/12/09 01:03:45;;;;;;;27.02;4.75;;;;;;;;;;4997586;28;20039;-29
2021/12/09 01:06:12;;;;;;;18.15;3.67;;;;;;;;;;4997593;28;20027;-29
2021/12/09 01:08:38;;;;;;;21.80;3.60;;;;;;;;;;4997090;28;20087;-29
2021/12/09 01:11:05;;;;;;;23.08;5.28;;;;;;;;;;4980556;28;20464;-29
2021/12/09 01:13:32;;;;;;;22.90;4.00;;;;;;;;;;4997621;28;20080;-29
2021/12/09 01:15:58;;;;;;;17.60;4.68;;;;;;;;;;4997563;28;20089;-29
2021/12/09 01:18:24;;;;;;;27.05;4.30;;;;;;;;;;4997810;28;20529;-29
2021/12/09 01:20:51;;;;;;;23.40;5.43;;;;;;;;;;4997536;28;20101;-28
2021/12/09 01:23:17;;;;;;;27.77;4.00;;;;;;;;;;4997467;28;20026;-29
2021/12/09 01:25:44;;;;;;;28.02;4.88;;;;;;;;;;4998222;28;20038;-29
2021/12/09 01:28:19;;;;;;;14.27;3.47;;;;;;;;;;4997379;28;20122;-29
2021/12/09 01:30:48;;;;;;;19.15;3.63;;;;;;;;;;4997691;28;20022;-29
2021/12/09 01:33:14;;;;;;;23.33;4.47;;;;;;;;;;4997446;28;20037;-29
2021/12/09 01:35:41;;;;;;;21.40;3.80;;;;;;;;;;4997143;28;20054;-29
2021/12/09 01:38:12;;;;;;;12.75;3.42;;;;;;;;;;4997470;28;20034;-28
2021/12/09 01:40:39;;;;;;;19.67;4.50;;;;;;;;;;4997175;28;20030;-29
2021/12/09 01:43:06;;;;;;;17.02;3.80;;;;;;;;;;4997188;28;20046;-29
2021/12/09 01:45:32;;;;;;;17.45;3.88;;;;;;;;;;4997094;28;20077;-29
2021/12/09 01:47:58;;;;;;;18.05;3.28;;;;;;;;;;4997022;28;20034;-29
2021/12/09 01:50:25;;;;;;;13.20;3.08;;;;;;;;;;4997024;28;20022;-29
2021/12/09 01:52:52;;;;;;;21.15;4.53;;;;;;;;;;4996835;28;20061;-28
2021/12/09 01:55:19;;;;;;;20.85;3.60;;;;;;;;;;4996864;28;20446;-29
2021/12/09 01:57:49;;;;;;;16.23;3.60;;;;;;;;;;4997098;28;20353;-29
2021/12/09 02:00:17;;;;;;;31.93;3.97;;;;;;;;;;4997079;28;20022;-29
2021/12/09 02:02:44;;;;;;;23.52;5.03;;;;;;;;;;4996742;28;20027;-29
2021/12/09 02:05:11;;;;;;;19.15;3.05;;;;;;;;;;4997048;28;20473;-28
2021/12/09 02:07:38;;;;;;;14.85;2.63;;;;;;;;;;4996639;28;20109;-29
2021/12/09 02:10:06;;;;;;;18.50;3.67;;;;;;;;;;4996594;28;20033;-29
2021/12/09 02:12:32;;;;;;;20.33;3.53;;;;;;;;;;4996750;28;20105;-29
2021/12/09 02:15:00;;;;;;;17.20;3.42;;;;;;;;;;4996421;28;20109;-29
2021/12/09 02:17:27;;;;;;;24.13;3.75;;;;;;;;;;4996725;28;20085;-29
2021/12/09 02:19:56;;;;;;;22.08;3.80;;;;;;;;;;4996155;28;20034;-29
2021/12/09 02:22:22;;;;;;;17.90;2.78;;;;;;;;;;4996513;28;20030;-29
2021/12/09 02:24:49;;;;;;;12.57;3.17;;;;;;;;;;4996293;28;20030;-29
2021/12/09 02:27:15;;;;;;;13.93;3.22;;;;;;;;;;4996552;28;20114;-29
2021/12/09 02:29:41;;;;;;;19.92;3.60;;;;;;;;;;4996310;28;20026;-29
2021/12/09 02:32:08;;;;;;;17.55;3.55;;;;;;;;;;4996450;28;20077;-29
2021/12/09 02:34:34;;;;;;;24.90;3.30;;;;;;;;;;4996151;28;20026;-28
2021/12/09 02:37:00;;;;;;;18.63;3.30;;;;;;;;;;4996386;28;20045;-29
2021/12/09 02:39:27;;;;;;;13.75;3.20;;;;;;;;;;4996065;28;20358;-28
2021/12/09 02:41:53;;;;;;;18.00;2.88;;;;;;;;;;4979544;28;20042;-29
2021/12/09 02:44:21;;;;;;;14.93;5.50;;;;;;;;;;4995980;28;20027;-29
2021/12/09 02:46:49;;;;;;;14.50;4.05;;;;;;;;;;4996242;28;20142;-28
2021/12/09 02:49:17;;;;;;;17.05;3.80;;;;;;;;;;4995891;28;20030;-29
2021/12/09 02:51:44;;;;;;;12.77;3.20;;;;;;;;;;4995854;28;20050;-29
2021/12/09 02:54:11;;;;;;;13.15;3.03;;;;;;;;;;4995702;28;20053;-28
2021/12/09 02:56:37;;;;;;;11.25;3.20;;;;;;;;;;4996446;28;20065;-29
2021/12/09 02:59:04;;;;;;;8.30;3.33;;;;;;;;;;4995699;28;20449;-29
2021/12/09 03:01:33;;;;;;;15.15;3.88;;;;;;;;;;4995929;28;20022;-29
2021/12/09 03:04:01;;;;;;;12.05;2.63;;;;;;;;;;4995404;28;20505;-28
2021/12/09 03:06:30;;;;;;;22.13;3.58;;;;;;;;;;4996138;28;20113;-29
2021/12/09 03:08:57;;;;;;;15.93;3.55;;;;;;;;;;4995531;28;20019;-29
2021/12/09 03:11:24;;;;;;;8.80;3.40;;;;;;;;;;4995752;28;20035;-28
2021/12/09 03:13:51;;;;;;;18.15;3.00;;;;;;;;;;4995400;28;20034;-29
2021/12/09 03:16:19;;;;;;;15.07;2.85;;;;;;;;;;4995822;28;20429;-29
2021/12/09 03:18:48;;;;;;;14.10;2.88;;;;;;;;;;4995319;28;20477;-29
2021/12/09 03:21:20;;;;;;;14.52;3.10;;;;;;;;;;4995538;28;20361;-29
2021/12/09 03:23:47;;;;;;;17.90;3.05;;;;;;;;;;4995232;28;20038;-29
2021/12/09 03:26:14;;;;;;;10.85;3.03;;;;;;;;;;4995262;28;20041;-29
2021/12/09 03:28:41;;;;;;;13.68;3.17;;;;;;;;;;4995505;28;20073;-28
2021/12/09 03:31:07;;;;;;;12.85;2.58;;;;;;;;;;4994892;28;20033;-29
2021/12/09 03:33:33;;;;;;;20.60;4.68;;;;;;;;;;4995070;28;20030;-29
2021/12/09 03:36:00;;;;;;;11.25;2.30;;;;;;;;;;4995320;28;20022;-28
2021/12/09 03:38:27;;;;;;;14.13;3.22;;;;;;;;;;4995364;28;20411;-29
2021/12/09 03:40:53;;;;;;;7.75;2.85;;;;;;;;;;4995315;28;20061;-29
2021/12/09 03:43:20;;;;;;;12.25;3.20;;;;;;;;;;4994941;28;20033;-29
2021/12/09 03:45:46;;;;;;;14.43;3.30;;;;;;;;;;4995048;28;20048;-29
2021/12/09 03:48:12;;;;;;;13.00;3.83;;;;;;;;;;4995010;28;20031;-29
2021/12/09 03:50:39;;;;;;;11.23;2.83;;;;;;;;;;4995063;28;20030;-29
2021/12/09 03:53:05;;;;;;;17.60;2.83;;;;;;;;;;4994946;28;20511;-29
2021/12/09 03:55:31;;;;;;;10.82;2.53;;;;;;;;;;4995148;28;20026;-29
2021/12/09 03:57:57;;;;;;;13.80;3.40;;;;;;;;;;4994942;28;20092;-29
2021/12/09 04:00:27;;;;;;;15.55;2.40;;;;;;;;;;4994938;28;20037;-29
2021/12/09 04:02:53;;;;;;;11.50;2.45;;;;;;;;;;4977563;28;20031;-28
2021/12/09 04:05:19;;;;;;;11.43;3.33;;;;;;;;;;4995218;28;20061;-29
2021/12/09 04:07:47;;;;;;;11.68;2.85;;;;;;;;;;4994833;28;20046;-29
2021/12/09 04:10:13;;;;;;;14.00;2.85;;;;;;;;;;4994906;28;20157;-28
2021/12/09 04:12:40;;;;;;;15.88;2.63;;;;;;;;;;4994955;28;20030;-29
2021/12/09 04:15:06;;;;;;;13.07;2.50;;;;;;;;;;4994765;28;20038;-29
2021/12/09 04:17:33;;;;;;;16.25;2.58;;;;;;;;;;4995090;28;20372;-28
2021/12/09 04:19:59;;;;;;;9.85;3.28;;;;;;;;;;4994797;28;20027;-29
2021/12/09 04:22:25;;;;;;;11.13;2.38;;;;;;;;;;4994717;28;20042;-29
2021/12/09 04:24:53;;;;;;;7.95;2.10;;;;;;;;;;4994749;28;20181;-29
2021/12/09 04:27:19;;;;;;;15.18;2.63;;;;;;;;;;4994930;28;20036;-29
2021/12/09 04:29:46;;;;;;;14.60;3.00;;;;;;;;;;4994714;28;20035;-29
2021/12/09 04:32:12;;;;;;;19.77;3.80;;;;;;;;;;4994623;28;20086;-29
2021/12/09 04:34:38;;;;;;;15.40;3.35;;;;;;;;;;4994561;28;20030;-29
2021/12/09 04:37:05;;;;;;;12.75;3.55;;;;;;;;;;4994627;28;20114;-29
2021/12/09 04:39:31;;;;;;;11.07;3.50;;;;;;;;;;4994858;28;20022;-29
2021/12/09 04:41:57;;;;;;;10.13;2.70;;;;;;;;;;4996150;28;20238;-29
2021/12/09 04:44:23;;;;;;;9.77;3.03;;;;;;;;;;4998178;28;20347;-29
2021/12/09 04:46:50;;;;;;;8.48;3.35;;;;;;;;;;4998410;28;20339;-29
2021/12/09 04:49:17;;;;;;;9.15;2.53;;;;;;;;;;4998105;28;20065;-29
2021/12/09 04:51:44;;;;;;;10.95;3.78;;;;;;;;;;4998232;28;20034;-29
2021/12/09 04:54:10;;;;;;;10.40;2.80;;;;;;;;;;4998187;28;20022;-29
2021/12/09 04:56:36;;;;;;;11.30;2.85;;;;;;;;;;4980900;28;20049;-29
2021/12/09 04:59:03;;;;;;;8.48;2.30;;;;;;;;;;4998167;28;20405;-29
2021/12/09 05:01:29;;;;;;;8.82;2.88;;;;;;;;;;4997855;28;20049;-28
2021/12/09 05:03:56;;;;;;;13.05;2.88;;;;;;;;;;4997632;28;20346;-29
2021/12/09 05:06:22;;;;;;;9.80;2.50;;;;;;;;;;4997685;28;20049;-28
2021/12/09 05:08:49;;;;;;;9.85;2.72;;;;;;;;;;4997640;28;20062;-29
2021/12/09 05:13:54;;;;;;;13.63;2.70;;;;;;;;;;4997613;28;20038;-29
2021/12/09 05:16:21;;;;;;;7.68;3.03;;;;;;;;;;4997204;28;20027;-28
2021/12/09 05:18:48;;;;;;;12.07;3.28;;;;;;;;;;4980402;28;20041;-29
2021/12/09 05:21:17;;;;;;;17.42;5.20;;;;;;;;;;4997452;28;20030;-28
2021/12/09 05:23:43;;;;;;;9.05;2.83;;;;;;;;;;4997439;28;20026;-29
2021/12/09 05:26:10;;;;;;;13.75;2.70;;;;;;;;;;4997293;28;20457;-28
2021/12/09 05:28:37;;;;;;;26.27;3.75;;;;;;;;;;4997276;28;20045;-29
2021/12/09 05:33:49;;;;;;;16.90;3.35;;;;;;;;;;4997368;28;20048;-29
2021/12/09 05:36:16;;;;;;;19.80;3.60;;;;;;;;;;4997267;28;20022;-29
2021/12/09 05:38:42;;;;;;;11.90;2.78;;;;;;;;;;4997086;28;20045;-29
2021/12/09 05:41:09;;;;;;;23.80;3.63;;;;;;;;;;4997096;28;20034;-29
2021/12/09 05:43:38;;;;;;;12.55;2.88;;;;;;;;;;4996900;28;20018;-29
2021/12/09 05:46:04;;;;;;;11.07;2.38;;;;;;;;;;4997227;28;20022;-29
2021/12/09 05:48:31;;;;;;;15.80;3.05;;;;;;;;;;4997215;28;20034;-29
2021/12/09 05:50:58;;;;;;;14.98;2.45;;;;;;;;;;4996879;28;20030;-29
2021/12/09 05:53:24;;;;;;;5.05;2.38;;;;;;;;;;4996061;28;20101;-29
2021/12/09 05:55:50;;;;;;;8.82;3.13;;;;;;;;;;4996875;28;20022;-29
2021/12/09 05:58:18;;;;;;;12.05;2.60;;;;;;;;;;4996723;28;20034;-28
2021/12/09 06:03:26;;;;;;;11.80;2.17;;;;;;;;;;5273467;23;20382;-25
2021/12/09 06:05:53;;;;;;;16.98;2.72;;;;;;;;;;4960020;28;20031;-26
2021/12/09 06:08:19;;;;;;;24.50;4.35;;;;;;;;;;4976943;28;20027;-25
2021/12/09 06:10:46;;;;;;;20.20;3.63;;;;;;;;;;4976724;28;20147;-26
2021/12/09 06:13:12;;;;;;;14.93;3.10;;;;;;;;;;4959717;28;20050;-25
2021/12/09 06:15:38;;;;;;;24.42;3.85;;;;;;;;;;4976732;28;20061;-25
2021/12/09 06:18:04;;;;;;;35.50;4.88;;;;;;;;;;4976829;28;20027;-26
2021/12/09 06:20:31;;;;;;;16.83;3.13;;;;;;;;;;4976580;28;20033;-25
2021/12/09 06:22:57;;;;;;;12.40;2.75;;;;;;;;;;4976494;28;20461;-25
2021/12/09 06:25:23;;;;;;;23.90;3.58;;;;;;;;;;4977050;28;20039;-25
2021/12/09 06:27:50;;;;;;;10.77;2.45;;;;;;;;;;4976530;28;20058;-25
2021/12/09 06:30:18;;;;;;;29.88;3.72;;;;;;;;;;4976403;28;20039;-26
2021/12/09 06:32:44;;;;;;;31.83;4.40;;;;;;;;;;4976316;28;20033;-25
2021/12/09 06:35:11;;;;;;;12.73;2.88;;;;;;;;;;4976637;28;20031;-26
2021/12/09 06:37:40;;;;;;;25.08;3.20;;;;;;;;;;4976362;28;20038;-26
2021/12/09 06:40:07;;;;;;;13.77;2.17;;;;;;;;;;4976566;28;20347;-26
2021/12/09 06:42:34;;;;;;;22.75;3.10;;;;;;;;;;4976082;28;20157;-25
2021/12/09 06:45:00;;;;;;;21.75;3.33;;;;;;;;;;4976334;28;20030;-25
2021/12/09 06:47:26;;;;;;;29.63;4.45;;;;;;;;;;4976306;28;20135;-26
2021/12/09 06:49:52;;;;;;;24.80;4.00;;;;;;;;;;4975984;28;20035;-25
2021/12/09 06:52:19;;;;;;;22.73;3.08;;;;;;;;;;4976220;28;20027;-25
2021/12/09 06:54:45;;;;;;;13.52;2.58;;;;;;;;;;4976129;28;20031;-25
2021/12/09 06:57:12;;;;;;;20.27;3.25;;;;;;;;;;4976212;28;20030;-26
2021/12/09 06:59:38;;;;;;;14.25;3.03;;;;;;;;;;4958774;28;20098;-25
2021/12/09 07:02:04;;;;;;;20.70;2.88;;;;;;;;;;4976222;28;20054;-25
2021/12/09 07:04:31;;;;;;;15.98;2.97;;;;;;;;;;4975552;28;20046;-25
2021/12/09 07:06:57;;;;;;;15.35;3.40;;;;;;;;;;4975529;28;20027;-25
2021/12/09 07:09:28;;;;;;;16.45;3.17;;;;;;;;;;4958601;28;20150;-25
2021/12/09 07:11:54;;;;;;;29.08;3.47;;;;;;;;;;4975688;28;20450;-25
2021/12/09 07:14:20;;;;;;;23.77;4.55;;;;;;;;;;4975937;28;20031;-25
2021/12/09 07:16:46;;;;;;;28.38;4.10;;;;;;;;;;4975611;28;20035;-25
2021/12/09 07:19:13;;;;;;;19.02;3.08;;;;;;;;;;4975648;28;20043;-25
2021/12/09 07:21:39;;;;;;;13.40;3.30;;;;;;;;;;4975847;28;20034;-25
2021/12/09 07:24:06;;;;;;;23.75;2.95;;;;;;;;;;4958316;28;20486;-26
2021/12/09 07:26:32;;;;;;;23.95;3.55;;;;;;;;;;4958260;28;20046;-26
2021/12/09 07:28:58;;;;;;;20.95;3.25;;;;;;;;;;4975674;28;20019;-26
2021/12/09 07:31:25;;;;;;;17.52;3.67;;;;;;;;;;4975539;28;20375;-26
2021/12/09 07:33:52;;;;;;;41.13;4.43;;;;;;;;;;4975355;28;20049;-26
2021/12/09 07:36:18;;;;;;;23.52;3.65;;;;;;;;;;4958304;28;20023;-26
2021/12/09 07:38:46;;;;;;;33.55;4.32;;;;;;;;;;4975676;28;20026;-26
2021/12/09 07:41:16;;;;;;;17.27;3.92;;;;;;;;;;4975635;28;20353;-26
2021/12/09 07:43:43;;;;;;;22.30;3.17;;;;;;;;;;4958221;28;20035;-26
2021/12/09 07:46:09;;;;;;;13.30;3.47;;;;;;;;;;4975352;28;20045;-26
2021/12/09 07:48:36;;;;;;;26.83;4.63;;;;;;;;;;4975369;28;20034;-26
2021/12/09 07:51:02;;;;;;;26.75;3.92;;;;;;;;;;4975565;28;20031;-26
2021/12/09 07:53:29;;;;;;;18.92;3.05;;;;;;;;;;4958412;28;20363;-26
2021/12/09 07:55:55;;;;;;;24.08;3.50;;;;;;;;;;4975577;28;20027;-26
2021/12/09 07:58:22;;;;;;;16.50;2.70;;;;;;;;;;4975503;28;20038;-26
2021/12/09 08:00:49;;;;;;;18.23;3.03;;;;;;;;;;4975488;28;20082;-26
2021/12/09 08:03:15;;;;;;;21.35;3.38;;;;;;;;;;4974990;28;20113;-26
2021/12/09 08:05:44;;;;;;;18.27;2.70;;;;;;;;;;4975461;28;20054;-26
2021/12/09 08:08:10;;;;;;;21.52;4.68;;;;;;;;;;4975124;28;20034;-26
2021/12/09 08:10:38;;;;;;;9.85;3.03;;;;;;;;;;4975086;28;20039;-26
2021/12/09 08:13:06;;;;;;;22.15;3.05;;;;;;;;;;4974819;28;20027;-26
2021/12/09 08:15:34;;;;;;;19.13;3.53;;;;;;;;;;4974566;28;20037;-26
2021/12/09 08:20:47;;;;;;;18.48;4.00;;;;;;;;;;4979049;28;20110;-26
2021/12/09 08:23:14;;;;;;;34.17;5.15;;;;;;;;;;4978923;28;20026;-26
2021/12/09 08:25:40;;;;;;;16.40;3.28;;;;;;;;;;4978928;28;20047;-26
2021/12/09 08:28:07;;;;;;;11.07;2.47;;;;;;;;;;4978941;28;20027;-26
2021/12/09 08:30:33;;;;;;;15.75;2.88;;;;;;;;;;4962040;28;20046;-26
2021/12/09 08:33:00;;;;;;;20.50;2.83;;;;;;;;;;4978755;28;20041;-26
2021/12/09 08:35:27;;;;;;;23.38;4.90;;;;;;;;;;4978835;28;20118;-26
2021/12/09 08:37:56;;;;;;;12.55;3.40;;;;;;;;;;4978974;28;20038;-25
2021/12/09 08:40:23;;;;;;;25.08;2.97;;;;;;;;;;4961562;28;20023;-26
2021/12/09 08:42:50;;;;;;;10.13;3.42;;;;;;;;;;4978824;28;20045;-26
2021/12/09 08:45:16;;;;;;;12.63;3.13;;;;;;;;;;4961528;28;20526;-25
2021/12/09 08:47:43;;;;;;;19.38;3.28;;;;;;;;;;4978571;28;20433;-25
2021/12/09 08:50:12;;;;;;;12.15;2.85;;;;;;;;;;4978615;28;20027;-25
2021/12/09 08:52:38;;;;;;;26.30;3.15;;;;;;;;;;4978645;28;20062;-25
2021/12/09 08:55:05;;;;;;;17.02;2.65;;;;;;;;;;4978648;28;20145;-25
2021/12/09 08:57:36;;;;;;;12.32;3.22;;;;;;;;;;4978420;28;20046;-26
2021/12/09 09:00:04;;;;;;;15.73;3.83;;;;;;;;;;4978408;28;20109;-26
2021/12/09 09:02:30;;;;;;;16.92;2.92;;;;;;;;;;4978455;28;20122;-26
2021/12/09 09:04:58;;;;;;;16.15;3.03;;;;;;;;;;4978632;28;20030;-25
2021/12/09 09:07:24;;;;;;;15.85;2.72;;;;;;;;;;4978279;28;20034;-25
2021/12/09 09:09:50;;;;;;;20.70;3.35;;;;;;;;;;4978488;28;20071;-25
2021/12/09 09:12:17;;;;;;;17.35;2.70;;;;;;;;;;4978229;28;20023;-25
2021/12/09 09:14:44;;;;;;;18.60;3.35;;;;;;;;;;4977973;28;20031;-25
2021/12/09 09:17:10;;;;;;;17.55;2.90;;;;;;;;;;4977852;28;20027;-25
2021/12/09 09:19:37;;;;;;;49.35;9.45;;;;;;;;;;4960782;28;20089;-25
2021/12/09 09:22:04;;;;;;;30.25;4.60;;;;;;;;;;4977988;28;20062;-25
2021/12/09 09:24:30;;;;;;;23.95;3.72;;;;;;;;;;4978116;28;20031;-25
2021/12/09 09:26:57;;;;;;;27.45;2.83;;;;;;;;;;4978060;28;20031;-21
2021/12/09 09:29:25;;;;;;;28.90;3.58;;;;;;;;;;4977275;28;20031;-24
2021/12/09 09:31:51;;;;;;;21.63;3.45;;;;;;;;;;4977655;28;20019;-21
2021/12/09 09:34:18;;;;;;;33.33;3.70;;;;;;;;;;4961241;28;20042;-21
2021/12/09 09:36:44;;;;;;;17.20;3.47;;;;;;;;;;4977605;28;20110;-22
2021/12/09 09:39:20;;;;;;;19.30;2.72;;;;;;;;;;4977648;28;20106;-21
2021/12/09 09:42:01;;;;;;;16.90;3.97;;;;;;;;;;4977457;28;20037;-23
2021/12/09 09:44:34;;;;;;;25.77;3.75;;;;;;;;;;4960516;28;20031;-23
2021/12/09 09:47:01;;;;;;;25.50;4.07;;;;;;;;;;4977515;28;20061;-21
2021/12/09 09:49:30;;;;;;;20.30;3.78;;;;;;;;;;4960908;28;20093;-21
2021/12/09 09:51:57;;;;;;;21.92;4.03;;;;;;;;;;4977335;28;20041;-22
2021/12/09 09:54:24;;;;;;;24.85;4.22;;;;;;;;;;4977351;28;20083;-21
2021/12/09 09:56:51;;;;;;;22.30;4.68;;;;;;;;;;4977626;28;20525;-22
2021/12/09 09:59:17;;;;;;;28.80;4.60;;;;;;;;;;4977584;28;20039;-23
2021/12/09 10:01:45;;;;;;;28.92;4.15;;;;;;;;;;4977263;28;20030;-22
2021/12/09 10:04:21;;;;;;;14.05;4.07;;;;;;;;;;4977082;28;20079;-22
2021/12/09 10:06:48;;;;;;;25.65;4.45;;;;;;;;;;4977266;28;20054;-23
2021/12/09 10:09:16;;;;;;;21.02;4.07;;;;;;;;;;4977177;28;20082;-23
2021/12/09 10:11:42;;;;;;;23.13;3.55;;;;;;;;;;4977337;28;20098;-21
2021/12/09 10:14:13;;;;;;;31.00;3.75;;;;;;;;;;4977313;28;20027;-22
2021/12/09 10:16:41;;;;;;;;;;;;;;;;;;4977359;28;20027;-22
2021/12/09 10:19:22;;;;;;;27.58;3.20;;;;;;;;;;4976946;28;19917;-22
2021/12/09 10:21:49;;;;;;;24.67;3.67;;;;;;;;;;4977115;28;20038;-21
2021/12/09 10:24:16;;;;;;;20.15;3.25;;;;;;;;;;4976767;28;20035;-23
2021/12/09 10:26:46;;;;;;;19.45;3.90;;;;;;;;;;4977357;28;20362;-22
2021/12/09 10:29:20;;;;;;;22.20;4.78;;;;;;;;;;4976709;28;20065;-22
2021/12/09 10:31:54;;;;;;;22.52;5.05;;;;;;;;;;4976989;28;20027;-23
2021/12/09 10:37:00;;;;;;;27.77;3.10;;;;;;;;;;4976471;28;20023;-22
2021/12/09 10:39:32;;;;;;;20.63;3.33;;;;;;;;;;4976350;28;20023;-22
2021/12/09 10:42:00;;;;;;;28.10;3.83;;;;;;;;;;4976563;28;20027;-25
2021/12/09 10:44:31;;;;;;;18.55;3.67;;;;;;;;;;4976678;28;20350;-22
2021/12/09 10:47:07;;;;;;;18.67;3.60;;;;;;;;;;4976299;28;20031;-23
2021/12/09 10:49:41;;;;;;;24.27;4.30;;;;;;;;;;4976529;28;20169;-23
2021/12/09 10:52:34;;;;;;;18.35;3.40;;;;;;;;;;4975993;28;20109;-23
2021/12/09 10:55:06;;;;;;;22.50;3.75;;;;;;;;;;4976162;28;20105;-24
2021/12/09 10:57:33;;;;;;;19.92;4.68;;;;;;;;;;4976629;28;20438;-23
2021/12/09 11:00:14;;;;;;;18.88;3.92;;;;;;;;;;4976381;28;20027;-23
2021/12/09 11:02:56;;;;;;;25.02;5.05;;;;;;;;;;4976051;28;20474;-22
2021/12/09 11:05:22;;;;;;;23.35;3.67;;;;;;;;;;4975844;28;20061;-22
2021/12/09 11:07:49;;;;;;;25.55;4.18;;;;;;;;;;4975821;28;20049;-23
2021/12/09 11:10:16;;;;;;;26.67;3.45;;;;;;;;;;4976153;28;20019;-21
2021/12/09 11:12:50;;;;;;;21.00;4.07;;;;;;;;;;4975676;28;20043;-24
2021/12/09 11:15:18;;;;;;;30.67;4.00;;;;;;;;;;4975825;28;20038;-23
2021/12/09 11:17:47;;;;;;;14.43;3.35;;;;;;;;;;4975674;28;20026;-21
2021/12/09 11:20:14;;;;;;;23.38;3.58;;;;;;;;;;4975626;28;20018;-21
2021/12/09 11:22:44;;;;;;;25.58;4.10;;;;;;;;;;4975732;28;20026;-22
2021/12/09 11:25:40;;;;;;;28.90;4.07;;;;;;;;;;4975929;28;20490;-22
2021/12/09 11:28:12;;;;;;;20.00;4.22;;;;;;;;;;4976341;28;20038;-21
2021/12/09 11:31:03;;;;;;;24.10;5.88;;;;;;;;;;4975639;28;20541;-21
2021/12/09 11:33:31;;;;;;;18.40;3.05;;;;;;;;;;4962172;28;20043;-22
2021/12/09 11:36:00;;;;;;;15.57;3.92;;;;;;;;;;4958413;28;20031;-22
2021/12/09 11:38:55;;;;;;;26.30;5.78;;;;;;;;;;4975822;28;20031;-26
2021/12/09 11:41:29;;;;;;;28.48;4.20;;;;;;;;;;4975394;28;20031;-22
2021/12/09 11:43:55;;;;;;;17.42;3.50;;;;;;;;;;4975438;28;20027;-21
2021/12/09 11:46:21;;;;;;;22.15;3.50;;;;;;;;;;4975580;28;20466;-22
2021/12/09 11:48:49;;;;;;;18.65;3.25;;;;;;;;;;4975186;28;20049;-22
2021/12/09 11:51:15;;;;;;;17.65;4.20;;;;;;;;;;4957822;28;20058;-22
2021/12/09 11:53:44;;;;;;;17.60;3.60;;;;;;;;;;4975253;28;20031;-22
2021/12/09 12:15:20;;;;;;;16.90;3.40;;;;;;;;;;4975944;28;20489;-21
2021/12/09 12:18:22;;;;;;;20.33;4.93;;;;;;;;;;4975218;28;20483;-22
2021/12/09 12:27:14;;;;;;;24.58;3.35;;;;;;;;;;4975246;28;20153;-21
2021/12/09 12:32:57;;;;;;;29.50;5.53;;;;;;;;;;4897259;29;20041;-22
2021/12/09 12:38:17;;;;;;;19.95;3.88;;;;;;;;;;4947571;28;20105;-22
2021/12/09 12:40:50;;;;;;;22.13;3.40;;;;;;;;;;4974377;28;20027;-21
2021/12/09 12:43:50;;;;;;;20.60;3.45;;;;;;;;;;4974813;28;20041;-21
2021/12/09 12:46:41;;;;;;;23.48;4.47;;;;;;;;;;4974672;28;20105;-21
2021/12/09 12:51:53;;;;;;;22.55;3.53;;;;;;;;;;4974904;28;20030;-21
2021/12/09 12:54:36;;;;;;;35.03;5.18;;;;;;;;;;4957869;28;20027;-21
2021/12/09 12:57:11;;;;;;;24.95;3.85;;;;;;;;;;4974635;28;20057;-22
2021/12/09 12:59:40;;;;;;;36.00;5.70;;;;;;;;;;4974944;28;20420;-21
2021/12/09 13:02:17;;;;;;;44.25;4.82;;;;;;;;;;4974497;28;20110;-21
2021/12/09 13:07:33;;;;;;;33.13;5.53;;;;;;;;;;4978337;28;20031;-23
2021/12/09 13:10:20;;;;;;;30.73;4.70;;;;;;;;;;4978569;28;20039;-24
2021/12/09 13:12:56;;;;;;;30.90;4.47;;;;;;;;;;4978213;28;20022;-23
2021/12/09 13:15:31;;;;;;;20.77;3.38;;;;;;;;;;4962966;28;20034;-23
2021/12/09 13:18:04;;;;;;;27.77;3.47;;;;;;;;;;4961177;28;20514;-22
2021/12/09 13:20:33;;;;;;;32.88;5.38;;;;;;;;;;4978136;28;20106;-22
2021/12/09 13:23:23;;;;;;;24.95;4.57;;;;;;;;;;4977903;28;20163;-22
2021/12/09 13:26:17;;;;;;;26.17;6.43;;;;;;;;;;4978090;28;20038;-23
2021/12/09 13:28:52;;;;;;;33.03;4.05;;;;;;;;;;4978089;28;20042;-23
2021/12/09 13:31:48;;;;;;;39.20;4.68;;;;;;;;;;4978112;28;20169;-24
2021/12/09 13:34:23;;;;;;;31.20;4.15;;;;;;;;;;4977690;28;20026;-23
2021/12/09 13:37:06;;;;;;;43.42;5.57;;;;;;;;;;4960685;28;20035;-22
2021/12/09 13:40:14;;;;;;;30.08;4.75;;;;;;;;;;4960727;28;20033;-23
2021/12/09 13:45:54;;;;;;;29.48;4.75;;;;;;;;;;4977634;28;20050;-22
2021/12/09 13:48:13;;;;;;;35.42;4.75;;;;;;;;;;4976709;28;20030;-22
2021/12/09 13:50:50;;;;;;;29.67;4.30;;;;;;;;;;4977301;28;20059;-21
2021/12/09 13:56:01;;;;;;;47.10;4.93;;;;;;;;;;4977005;28;20046;-22
2021/12/09 13:58:28;;;;;;;17.60;3.53;;;;;;;;;;4977503;28;20169;-23
2021/12/09 14:01:16;;;;;;;22.65;4.50;;;;;;;;;;4977025;28;20122;-22
2021/12/09 14:03:43;;;;;;;35.67;4.57;;;;;;;;;;4977098;28;20181;-22
2021/12/09 14:06:12;;;;;;;29.73;4.95;;;;;;;;;;4977145;28;20126;-22
2021/12/09 14:08:45;;;;;;;28.50;4.55;;;;;;;;;;4977012;28;20429;-32
2021/12/09 14:11:19;;;;;;;24.25;3.53;;;;;;;;;;4977531;28;20350;-24
2021/12/09 14:13:57;;;;;;;31.88;4.97;;;;;;;;;;4976849;28;20035;-23
2021/12/09 14:16:39;;;;;;;32.83;5.00;;;;;;;;;;4977010;28;20561;-23
2021/12/09 14:21:35;;;;;;;57.03;5.30;;;;;;;;;;4976935;28;20027;-23
2021/12/09 14:24:14;;;;;;;29.90;5.57;;;;;;;;;;4976828;28;20031;-22
2021/12/09 14:26:41;;;;;;;24.60;4.53;;;;;;;;;;4976764;28;20049;-21
2021/12/09 14:29:08;;;;;;;43.28;4.78;;;;;;;;;;4959884;28;20031;-21
2021/12/09 14:31:41;;;;;;;30.70;3.72;;;;;;;;;;4976727;28;20031;-21
2021/12/09 14:34:07;;;;;;;16.42;3.65;;;;;;;;;;4977061;28;20118;-20
2021/12/09 14:36:34;;;;;;;24.00;4.25;;;;;;;;;;4959419;28;20089;-21
2021/12/09 14:39:07;;;;;;;27.45;3.78;;;;;;;;;;4976381;28;20118;-23
2021/12/09 14:41:35;;;;;;;25.63;4.32;;;;;;;;;;4976611;28;20022;-23
2021/12/09 14:44:04;;;;;;;35.58;4.97;;;;;;;;;;4976237;28;20456;-22
2021/12/09 14:46:36;;;;;;;32.53;7.15;;;;;;;;;;4959481;28;20039;-24
2021/12/09 14:49:17;;;;;;;36.35;4.78;;;;;;;;;;4976944;28;20462;-23
2021/12/09 14:51:44;;;;;;;36.42;8.80;;;;;;;;;;4959144;28;20039;-22
2021/12/09 14:54:11;;;;;;;32.15;4.82;;;;;;;;;;4959167;28;20041;-22
2021/12/09 14:56:41;;;;;;;41.05;4.45;;;;;;;;;;4976183;28;20470;-22
2021/12/09 14:59:26;;;;;;;39.65;5.40;;;;;;;;;;4976254;28;20031;-23
2021/12/09 15:02:05;;;;;;;33.55;4.80;;;;;;;;;;4976419;28;20463;-23
2021/12/09 15:04:38;;;;;;;35.75;7.47;;;;;;;;;;4958982;28;20038;-23
2021/12/09 15:07:15;;;;;;;37.05;4.22;;;;;;;;;;4976380;28;20109;-23
2021/12/09 15:09:41;;;;;;;43.67;5.82;;;;;;;;;;4975905;28;20035;-22
2021/12/09 15:12:09;;;;;;;27.83;6.13;;;;;;;;;;4976161;28;20030;-23
2021/12/09 15:14:37;;;;;;;39.50;5.13;;;;;;;;;;4976233;28;20489;-23
2021/12/09 15:17:06;;;;;;;37.78;4.90;;;;;;;;;;4975944;28;20137;-22
2021/12/09 15:19:33;;;;;;;44.05;5.30;;;;;;;;;;4976096;28;20446;-23
2021/12/09 15:22:17;;;;;;;29.00;5.15;;;;;;;;;;4958752;28;20361;-23
2021/12/09 15:25:05;;;;;;;32.08;6.30;;;;;;;;;;4958808;28;20037;-22
2021/12/09 15:27:50;;;;;;;34.38;5.72;;;;;;;;;;4975534;28;20026;-22
2021/12/09 15:30:17;;;;;;;34.47;4.78;;;;;;;;;;4976042;28;20045;-22
2021/12/09 15:32:57;;;;;;;26.73;4.88;;;;;;;;;;4975684;28;20019;-23
2021/12/09 15:35:23;;;;;;;34.47;5.60;;;;;;;;;;4958522;28;20027;-23
2021/12/09 15:37:49;;;;;;;24.52;4.57;;;;;;;;;;4958593;28;20104;-22
2021/12/09 15:40:17;;;;;;;35.25;3.85;;;;;;;;;;4975536;28;20034;-23
2021/12/09 15:42:44;;;;;;;26.85;4.35;;;;;;;;;;4975598;28;20023;-23